createdAt,value
2018-06-12T00:01:14.356Z,4.70
2018-06-12T00:06:17.640Z,4.90
2018-06-12T00:11:20.895Z,4.60
2018-06-12T00:16:24.123Z,5.20
2018-06-12T00:21:27.366Z,5.70
2018-06-12T00:26:30.598Z,5.60
2018-06-12T00:31:33.849Z,4.33
2018-06-12T00:36:37.091Z,5.67
2018-06-12T00:41:40.323Z,5.77
2018-06-12T00:46:43.598Z,5.10
2018-06-12T00:51:46.848Z,6.20
2018-06-12T00:57:01.483Z,6.13
2018-06-12T01:02:05.160Z,5.73
2018-06-12T01:07:08.427Z,5.20
2018-06-12T01:12:11.696Z,6.20
2018-06-12T01:17:14.955Z,6.07
2018-06-12T01:22:18.182Z,6.10
2018-06-12T01:27:21.383Z,7.00
2018-06-12T01:32:24.624Z,6.00
2018-06-12T01:37:27.840Z,5.53
2018-06-12T01:42:31.112Z,6.37
2018-06-12T01:47:34.354Z,6.80
2018-06-12T01:52:37.571Z,7.63
2018-06-12T01:57:40.839Z,6.97
2018-06-12T02:02:44.071Z,6.20
2018-06-12T02:07:47.303Z,6.07
2018-06-12T02:12:50.559Z,6.60
2018-06-12T02:17:53.768Z,6.27
2018-06-12T02:22:56.983Z,6.53
2018-06-12T02:28:00.208Z,6.93
2018-06-12T02:33:03.428Z,8.40
2018-06-12T02:38:06.635Z,6.73
2018-06-12T02:43:09.855Z,6.10
2018-06-12T02:48:13.108Z,5.30
2018-06-12T02:53:16.315Z,6.57
2018-06-12T02:58:19.547Z,6.00
2018-06-12T03:03:22.763Z,6.03
2018-06-12T03:08:25.964Z,6.23
2018-06-12T03:13:29.220Z,6.00
2018-06-12T03:18:32.441Z,5.90
2018-06-12T03:23:35.676Z,6.90
2018-06-12T03:28:38.894Z,6.53
2018-06-12T03:33:42.127Z,7.13
2018-06-12T03:38:45.335Z,6.13
2018-06-12T03:43:48.605Z,5.73
2018-06-12T03:48:52.872Z,5.83
2018-06-12T03:53:57.672Z,6.63
2018-06-12T03:59:01.660Z,6.00
2018-06-12T04:04:05.995Z,6.50
2018-06-12T04:09:09.408Z,6.27
2018-06-12T04:14:12.661Z,6.03
2018-06-12T04:19:15.860Z,6.73
2018-06-12T04:24:19.067Z,6.60
2018-06-12T04:29:23.140Z,6.33
2018-06-12T04:34:26.366Z,7.07
2018-06-12T04:39:29.618Z,7.40
2018-06-12T04:44:32.822Z,7.00
2018-06-12T04:49:36.772Z,6.13
2018-06-12T04:54:40.162Z,6.90
2018-06-12T04:59:43.331Z,7.40
2018-06-12T05:04:46.536Z,6.33
2018-06-12T05:09:49.750Z,6.20
2018-06-12T05:14:52.988Z,7.03
2018-06-12T05:19:56.261Z,6.60
2018-06-12T05:24:59.464Z,6.20
2018-06-12T05:30:02.700Z,6.33
2018-06-12T05:35:05.968Z,6.50
2018-06-12T05:40:09.173Z,7.30
2018-06-12T05:45:12.392Z,7.73
2018-06-12T05:50:15.603Z,6.17
2018-06-12T05:55:18.858Z,5.83
2018-06-12T06:00:22.071Z,6.90
2018-06-12T06:05:25.291Z,5.90
2018-06-12T06:10:28.576Z,5.97
2018-06-12T06:15:31.800Z,6.10
2018-06-12T06:20:35.048Z,5.90
2018-06-12T06:25:38.311Z,6.60
2018-06-12T06:30:41.539Z,8.58
2018-06-12T06:35:44.815Z,5.97
2018-06-12T06:40:48.043Z,6.63
2018-06-12T06:45:51.276Z,6.10
2018-06-12T06:50:54.597Z,5.90
2018-06-12T06:55:57.795Z,5.83
2018-06-12T07:01:01.038Z,5.40
2018-06-12T07:06:04.273Z,5.50
2018-06-12T07:11:07.519Z,5.20
2018-06-12T07:16:10.795Z,4.87
2018-06-12T07:21:18.762Z,5.03
2018-06-12T07:26:22.022Z,4.70
2018-06-12T07:31:25.251Z,4.97
2018-06-12T07:36:28.526Z,4.70
2018-06-12T07:41:31.739Z,5.00
2018-06-12T07:46:34.979Z,4.60
2018-06-12T07:51:38.252Z,3.97
2018-06-12T07:56:41.495Z,4.87
2018-06-12T08:01:44.824Z,4.50
2018-06-12T08:06:48.073Z,4.03
2018-06-12T08:11:51.310Z,3.53
2018-06-12T08:16:54.539Z,4.17
2018-06-12T08:21:57.750Z,3.87
2018-06-12T08:27:00.972Z,4.03
2018-06-12T08:32:04.234Z,3.40
2018-06-12T08:37:07.275Z,4.43
2018-06-12T08:42:10.496Z,4.67
2018-06-12T08:47:13.699Z,4.20
2018-06-12T08:52:16.921Z,3.80
2018-06-12T08:57:20.171Z,4.30
2018-06-12T09:02:23.386Z,3.90
2018-06-12T09:07:26.615Z,3.70
2018-06-12T09:12:29.885Z,3.33
2018-06-12T09:17:33.125Z,3.40
2018-06-12T09:22:36.360Z,3.90
2018-06-12T09:27:44.932Z,3.40
2018-06-12T09:32:48.164Z,3.20
2018-06-12T09:37:51.415Z,4.40
2018-06-12T09:42:54.650Z,4.33
2018-06-12T09:47:57.935Z,3.40
2018-06-12T09:53:01.166Z,4.27
2018-06-12T09:58:04.414Z,4.77
2018-06-12T10:03:07.607Z,4.40
2018-06-12T10:08:10.854Z,3.40
2018-06-12T10:13:14.162Z,2.93
2018-06-12T10:18:17.395Z,3.53
2018-06-12T10:23:20.656Z,3.57
2018-06-12T10:28:23.891Z,3.67
2018-06-12T10:33:27.126Z,3.30
2018-06-12T10:38:30.355Z,3.20
2018-06-12T10:43:33.676Z,3.37
2018-06-12T10:48:36.893Z,3.80
2018-06-12T10:53:40.129Z,3.60
2018-06-12T10:58:43.391Z,3.23
2018-06-12T11:03:46.624Z,3.70
2018-06-12T11:08:49.887Z,3.30
2018-06-12T11:13:53.283Z,4.30
2018-06-12T11:18:56.540Z,3.10
2018-06-12T11:23:59.801Z,3.40
2018-06-12T11:29:03.083Z,3.27
2018-06-12T11:34:06.327Z,3.43
2018-06-12T11:39:09.720Z,3.30
2018-06-12T11:44:12.962Z,4.00
2018-06-12T11:49:16.223Z,3.70
2018-06-12T11:54:19.526Z,3.67
2018-06-12T11:59:22.772Z,3.63
2018-06-12T12:04:26.031Z,4.10
2018-06-12T12:09:29.255Z,2.80
2018-06-12T12:14:32.510Z,3.83
2018-06-12T12:19:35.723Z,3.07
2018-06-12T12:24:38.936Z,3.50
2018-06-12T12:29:42.171Z,4.10
2018-06-12T12:34:45.593Z,3.83
2018-06-12T12:39:48.879Z,2.63
2018-06-12T12:44:52.095Z,3.30
2018-06-12T12:49:55.404Z,3.47
2018-06-12T12:54:58.635Z,4.07
2018-06-12T13:00:01.851Z,3.83
2018-06-12T13:05:05.292Z,3.87
2018-06-12T13:10:08.568Z,3.10
2018-06-12T13:15:11.831Z,5.30
2018-06-12T13:20:15.104Z,5.27
2018-06-12T13:25:18.387Z,4.10
2018-06-12T13:30:21.639Z,3.57
2018-06-12T13:35:24.867Z,5.27
2018-06-12T13:40:28.082Z,3.60
2018-06-12T13:45:31.296Z,4.70
2018-06-12T13:50:34.280Z,5.40
2018-06-12T13:55:37.489Z,7.13
2018-06-12T14:00:40.701Z,5.20
2018-06-12T14:05:43.906Z,4.87
2018-06-12T14:10:47.159Z,5.50
2018-06-12T14:15:50.372Z,6.60
2018-06-12T14:20:53.612Z,5.73
2018-06-12T14:25:56.832Z,4.37
2018-06-12T14:31:00.160Z,5.33
2018-06-12T14:36:03.405Z,6.10
2018-06-12T14:41:06.607Z,4.23
2018-06-12T14:46:09.966Z,5.70
2018-06-12T14:51:13.177Z,5.90
2018-06-12T14:56:16.411Z,5.37
2018-06-12T15:01:19.688Z,7.70
2018-06-12T15:06:22.915Z,5.40
2018-06-12T15:11:26.200Z,6.10
2018-06-12T15:16:29.427Z,6.53
2018-06-12T15:21:32.653Z,6.40
2018-06-12T15:26:35.883Z,6.87
2018-06-12T15:31:39.111Z,7.43
2018-06-12T15:36:42.347Z,6.20
2018-06-12T15:41:45.579Z,4.50
2018-06-12T15:46:48.803Z,5.87
2018-06-12T15:51:52.039Z,5.43
2018-06-12T15:56:55.289Z,6.00
2018-06-12T16:01:58.506Z,5.97
2018-06-12T16:07:01.721Z,13.60
2018-06-12T16:12:04.997Z,8.30
2018-06-12T16:17:08.253Z,8.07
2018-06-12T16:22:11.497Z,6.50
2018-06-12T16:27:14.732Z,8.13
2018-06-12T16:32:17.964Z,6.90
2018-06-12T16:37:21.196Z,6.77
2018-06-12T16:42:24.403Z,6.70
2018-06-12T16:47:27.652Z,7.40
2018-06-12T16:52:30.892Z,6.70
2018-06-12T16:57:34.163Z,7.07
2018-06-12T17:02:37.490Z,7.33
2018-06-12T17:07:40.791Z,8.50
2018-06-12T17:12:44.132Z,7.97
2018-06-12T17:17:47.381Z,8.10
2018-06-12T17:22:50.644Z,7.93
2018-06-12T17:27:53.896Z,7.07
2018-06-12T17:32:57.176Z,7.83
2018-06-12T17:38:00.455Z,7.10
2018-06-12T17:43:03.812Z,7.97
2018-06-12T17:48:07.079Z,7.57
2018-06-12T17:53:10.307Z,7.37
2018-06-12T17:58:13.596Z,6.27
2018-06-12T18:03:16.999Z,6.90
2018-06-12T18:08:20.235Z,6.60
2018-06-12T18:13:23.557Z,7.10
2018-06-12T18:18:26.845Z,6.00
2018-06-12T18:23:30.172Z,6.87
2018-06-12T18:28:33.476Z,6.80
2018-06-12T18:33:37.162Z,6.87
2018-06-12T18:38:40.391Z,6.47
2018-06-12T18:43:43.725Z,6.37
2018-06-12T18:48:47.116Z,6.97
2018-06-12T18:53:50.463Z,6.43
2018-06-12T18:58:53.987Z,6.63
2018-06-12T19:03:57.293Z,6.73
2018-06-12T19:09:01.352Z,7.80
2018-06-12T19:14:04.774Z,7.27
2018-06-12T19:19:08.227Z,6.83
2018-06-12T19:24:11.524Z,6.57
2018-06-12T19:29:14.885Z,5.43
2018-06-12T19:34:18.459Z,5.93
2018-06-12T19:39:21.692Z,5.63
2018-06-12T19:44:26.235Z,5.43
2018-06-12T19:49:29.539Z,5.90
2018-06-12T19:54:32.949Z,5.20
2018-06-12T19:59:36.152Z,4.70
2018-06-12T20:04:39.362Z,5.53
2018-06-12T20:09:42.593Z,5.00
2018-06-12T20:14:45.843Z,5.20
2018-06-12T20:19:49.061Z,4.90
2018-06-12T20:24:52.331Z,4.30
2018-06-12T20:29:55.516Z,4.53
2018-06-12T20:34:58.788Z,4.30
2018-06-12T20:40:02.116Z,4.90
2018-06-12T20:45:05.372Z,4.67
2018-06-12T20:50:08.647Z,4.97
2018-06-12T20:55:11.925Z,4.43
2018-06-12T21:00:15.174Z,3.93
2018-06-12T21:05:18.485Z,4.00
2018-06-12T21:10:21.716Z,3.80
2018-06-12T21:15:24.987Z,3.43
2018-06-12T21:20:28.223Z,3.70
2018-06-12T21:25:31.476Z,4.33
2018-06-12T21:30:34.719Z,4.47
2018-06-12T21:35:37.984Z,3.83
2018-06-12T21:40:41.272Z,4.00
2018-06-12T21:45:44.524Z,3.53
2018-06-12T21:50:47.795Z,3.40
2018-06-12T21:55:51.086Z,3.57
2018-06-12T22:00:54.272Z,3.23
2018-06-12T22:05:57.544Z,3.97
2018-06-12T22:11:00.804Z,3.10
2018-06-12T22:16:04.016Z,3.07
2018-06-12T22:21:07.268Z,2.63
2018-06-12T22:26:10.532Z,2.80
2018-06-12T22:31:13.738Z,2.43
2018-06-12T22:36:16.942Z,2.33
2018-06-12T22:41:20.184Z,3.10
2018-06-12T22:46:23.416Z,2.90
2018-06-12T22:51:26.706Z,2.83
2018-06-12T22:56:29.888Z,2.50
2018-06-12T23:01:33.135Z,2.93
2018-06-12T23:06:36.331Z,2.90
2018-06-12T23:11:39.556Z,2.50
2018-06-12T23:16:42.772Z,2.77
2018-06-12T23:21:58.940Z,2.97
2018-06-12T23:27:02.183Z,2.57
2018-06-12T23:32:05.380Z,2.23
2018-06-12T23:37:08.600Z,2.50
2018-06-12T23:42:11.804Z,2.83
2018-06-12T23:47:15.031Z,2.50
2018-06-12T23:52:18.235Z,2.47
2018-06-12T23:57:21.446Z,2.30
